Aérodrome :
LOGIN :

S'inscrire | Disclaimer

   EN    FR    IT 

 










Légende :    VFR   VFR Marginal   IFR   IFR Intensif   IFR Très Intensif
Visi : 
Plafond : 
>= 8 km
>= 3000ft
5 à 8 km
1000 à 3000 ft
1500m à 5 km
500 à 1000 ft
800 à 1500m
200 à 500 ft
< 800m
< 200 ft
Symboles :   Orages  Brouillard  Fortes neiges  Fortes précipitations  Vent > 20 kt
SIGMETs :   Divers  Orages  Givrage  Turbulence  Onde Orograph.  Cendres Volcan.






- Altitude de l'aérodrome : 65 ft
- Code IATA : PIK


EGPK - Glasgow Prestwick

DERNIER METAR :
  • 250350Z VRB02KT 9999 R30/1400 FEW031 OVC044 11/10 Q1019

METARs EXPIRÉS :
  • 250320Z 04003KT 9999 R30/1400 BKN035 11/09 Q1019
  • 250250Z AUTO 05005KT 020V090 9999 FEW018/// OVC041/// 11/10 Q1018
  • 250220Z AUTO VRB02KT 9999 -RA FEW009/// SCT015/// BKN021/// 12/10 Q1018
  • 250150Z AUTO VRB02KT 9999 -RA OVC012/// 12/10 Q1018
  • 250120Z AUTO VRB02KT 9999 -RA OVC013/// 12/10 Q1018

TAF TAF EGPK
Valide du 25 à 00h jusqu'au 26 à 00h UTC


242301Z 2500/2524 30010KT 9999 SCT020
BECMG 2500/2503 01009KT
TEMPO 2500/2506 7000 -RADZ BKN014
PROB30
TEMPO 2500/2506 4000 RADZ BKN009
PROB30
TEMPO 2510/2524 6000 RA SHRA



MET'MAP, la Météo Aéronautique d'un coup d'oeil ! - Copyright ORBIFLY Décembre 2007 - Disclaimer

ORBIFLY MET'MAP TEAM :

Programmation & Développement : Alexandra Zaïnal
Sur une idée originale de : Baudouin d'Aumeries
Assistance à la programmation : Marc-Olivier Méhu
Soutien technique & logistique : Manuel Goepfert

Contact : metmap@orbifly.com




SOURCES & CREDITS :

   NOAA